Time;durP1;ratioP1;P1;durP2;ratioP2;P2;SDS_P1;SDS_P2;PMS_P1;PMS_P2;Temp;Humidity;BMP_temperature;BMP_pressure;BME280_temperature;BME280_humidity;BME280_pressure;Samples;Min_cycle;Max_cycle;Signal;HPM_P1;HPM_P2
2021/11/08 10:43:09;;;;;;;20.60;7.40;;;;;13.10;101888.00;;;;10400095;28;20316;-80
2021/11/08 10:48:11;;;;;;;28.13;6.47;;;;;13.30;101890.00;;;;10460891;28;20233;-80
2021/11/08 10:53:18;;;;;;;24.40;6.80;;;;;13.50;101884.00;;;;10471472;28;20263;-80
2021/11/08 10:58:22;;;;;;;21.60;6.37;;;;;13.30;101886.00;;;;10467780;28;20671;-80
2021/11/08 11:03:25;;;;;;;22.67;6.37;;;;;13.30;101879.00;;;;10507250;28;20234;-77
2021/11/08 11:08:28;;;;;;;21.77;6.60;;;;;13.30;101876.00;;;;10455645;28;20201;-80
2021/11/08 11:13:32;;;;;;;16.17;5.33;;;;;13.30;101871.00;;;;10438323;28;20216;-80
2021/11/08 11:18:37;;;;;;;23.50;7.07;;;;;13.10;101863.00;;;;10485581;28;20216;-80
2021/11/08 11:23:50;;;;;;;22.10;6.40;;;;;13.40;101856.00;;;;10463032;28;20224;-80
2021/11/08 11:28:52;;;;;;;17.63;5.23;;;;;13.90;101842.00;;;;10519240;28;20205;-77
2021/11/08 11:33:58;;;;;;;16.50;4.80;;;;;14.10;101837.00;;;;10494002;28;20197;-78
2021/11/08 11:39:04;;;;;;;19.20;4.67;;;;;14.40;101842.00;;;;10480919;28;20693;-78
2021/11/08 11:44:09;;;;;;;14.17;4.33;;;;;14.70;101847.00;;;;10503543;28;20232;-77
2021/11/08 11:49:12;;;;;;;22.43;4.17;;;;;14.70;101859.00;;;;10487330;28;20591;-77
2021/11/08 11:54:18;;;;;;;9.40;3.00;;;;;14.00;101857.00;;;;10467629;28;20229;-78
2021/11/08 11:59:20;;;;;;;21.73;4.50;;;;;13.80;101856.00;;;;10484173;28;20323;-77
2021/11/08 12:04:24;;;;;;;16.37;3.90;;;;;13.40;101837.00;;;;10486836;28;20251;-77
2021/11/08 12:09:29;;;;;;;14.73;3.00;;;;;13.20;101840.00;;;;10495628;28;20231;-78
2021/11/08 12:14:35;;;;;;;21.97;4.20;;;;;12.50;101848.00;;;;10479180;28;20197;-77
2021/11/08 12:19:41;;;;;;;15.10;4.17;;;;;12.40;101844.00;;;;10472902;27;20211;-79
2021/11/08 12:24:59;;;;;;;20.70;5.30;;;;;12.40;101847.00;;;;10477830;27;20221;-80
2021/11/08 12:30:08;;;;;;;23.83;8.93;;;;;12.80;101846.00;;;;10474681;28;20287;-80
2021/11/08 13:14:36;;;;;;;16.80;4.13;;;;;14.90;101815.00;;;;12352070;22;20184;-75
2021/11/08 13:19:52;;;;;;;17.07;3.77;;;;;14.60;101812.00;;;;10453985;28;20600;-78
2021/11/08 13:25:36;;;;;;;15.43;3.75;;;;;14.40;101821.00;;;;10451620;28;20213;-78
2021/11/08 13:30:45;;;;;;;17.67;4.20;;;;;14.30;101804.00;;;;10457829;28;20210;-78
2021/11/08 13:35:48;;;;;;;18.53;4.43;;;;;14.20;101812.00;;;;10464236;28;20287;-78
2021/11/08 13:41:04;;;;;;;15.43;3.93;;;;;14.00;101807.00;;;;10438901;28;20308;-78
2021/11/08 13:46:10;;;;;;;16.37;4.13;;;;;13.50;101813.00;;;;10468972;28;20223;-78
2021/11/08 13:51:40;;;;;;;17.17;5.17;;;;;12.90;101817.00;;;;10437272;28;20229;-78
2021/11/08 13:56:49;;;;;;;17.27;3.63;;;;;12.50;101815.00;;;;10479117;28;20284;-78
2021/11/08 14:01:58;;;;;;;10.37;4.10;;;;;12.40;101817.00;;;;10464541;28;20209;-79
2021/11/08 14:07:03;;;;;;;21.13;3.87;;;;;12.80;101813.00;;;;10464389;28;20630;-78
2021/11/08 14:12:07;;;;;;;16.37;4.23;;;;;12.50;101817.00;;;;10464367;28;20292;-78
2021/11/08 14:17:24;;;;;;;17.23;3.90;;;;;12.10;101815.00;;;;10456456;28;20252;-78
2021/11/08 14:22:30;;;;;;;18.87;4.53;;;;;11.80;101814.00;;;;10446605;28;20197;-78
2021/11/08 14:27:34;;;;;;;14.40;5.13;;;;;11.70;101824.00;;;;10446419;28;20587;-78
2021/11/08 14:32:36;;;;;;;15.00;3.30;;;;;11.90;101823.00;;;;10431540;28;20203;-78
2021/11/08 14:38:34;;;;;;;15.03;3.10;;;;;12.00;101822.00;;;;10454426;28;20656;-78
2021/11/08 14:43:19;;;;;;;10.97;3.63;;;;;12.10;101838.00;;;;10453118;28;20243;-78
2021/11/08 14:48:26;;;;;;;19.33;4.03;;;;;12.30;101839.00;;;;10452566;28;20671;-78
2021/11/08 14:53:38;;;;;;;21.80;4.23;;;;;12.40;101841.00;;;;10479975;28;20250;-78
2021/11/08 14:58:40;;;;;;;14.37;3.60;;;;;12.30;101844.00;;;;10445015;28;20206;-78
2021/11/08 15:03:42;;;;;;;18.27;4.80;;;;;12.10;101835.00;;;;10429044;28;20725;-78
2021/11/08 15:08:44;;;;;;;17.77;4.03;;;;;11.70;101832.00;;;;10478147;28;20197;-78
2021/11/08 15:13:47;;;;;;;16.07;4.33;;;;;11.20;101831.00;;;;10479545;28;20205;-78
2021/11/08 15:18:49;;;;;;;18.70;4.30;;;;;10.90;101835.00;;;;10477322;28;20226;-78
2021/11/08 15:23:51;;;;;;;16.80;3.93;;;;;10.80;101840.00;;;;10430354;28;20201;-78
2021/11/08 15:28:56;;;;;;;18.53;3.90;;;;;10.80;101844.00;;;;10479138;28;20225;-78
2021/11/08 15:34:07;;;;;;;18.77;4.67;;;;;10.70;101849.00;;;;10435007;28;20190;-78
2021/11/08 15:39:12;;;;;;;18.70;4.60;;;;;10.60;101854.00;;;;10437853;28;20202;-78
2021/11/08 15:44:14;;;;;;;20.63;4.60;;;;;10.60;101847.00;;;;10413610;28;20241;-78
2021/11/08 15:49:17;;;;;;;22.50;4.83;;;;;10.60;101851.00;;;;10472207;28;20225;-78
2021/11/08 15:54:22;;;;;;;17.53;4.60;;;;;10.50;101863.00;;;;10438238;28;20894;-78
2021/11/08 15:59:24;;;;;;;18.93;4.83;;;;;10.30;101852.00;;;;10453268;28;20251;-78
2021/11/08 16:04:26;;;;;;;13.27;4.20;;;;;10.10;101855.00;;;;10471624;28;20214;-78
2021/11/08 16:09:28;;;;;;;21.03;4.53;;;;;9.90;101865.00;;;;10462572;28;20228;-78
2021/11/08 16:14:30;;;;;;;20.13;4.83;;;;;9.70;101873.00;;;;10468150;28;20226;-77
2021/11/08 16:19:32;;;;;;;20.83;5.93;;;;;9.50;101872.00;;;;10483456;28;20289;-78
2021/11/08 16:24:34;;;;;;;20.20;5.53;;;;;9.40;101876.00;;;;10435578;28;20289;-78
2021/11/08 16:29:36;;;;;;;20.70;5.87;;;;;9.30;101872.00;;;;10560866;22;20288;-79
2021/11/08 16:34:38;;;;;;;21.73;5.60;;;;;9.20;101861.00;;;;10432612;28;20743;-80
2021/11/08 16:39:41;;;;;;;24.53;6.10;;;;;9.10;101861.00;;;;10438902;28;20206;-79
2021/11/08 16:44:43;;;;;;;21.90;5.60;;;;;9.00;101874.00;;;;10450839;28;20231;-79
2021/11/08 16:49:45;;;;;;;19.30;6.07;;;;;8.90;101874.00;;;;10427019;28;20264;-79
2021/11/08 16:54:49;;;;;;;21.00;5.40;;;;;8.80;101885.00;;;;10448573;28;20221;-79
2021/11/08 16:59:52;;;;;;;20.97;5.40;;;;;8.70;101886.00;;;;10443231;28;20248;-79
2021/11/08 17:04:54;;;;;;;20.17;5.97;;;;;8.50;101886.00;;;;10457152;28;20269;-79
2021/11/08 17:15:05;;;;;;;17.47;5.40;;;;;8.20;101897.00;;;;10454713;28;20668;-79
2021/11/08 17:20:07;;;;;;;20.63;5.20;;;;;8.10;101897.00;;;;10436972;28;20205;-79
2021/11/08 17:25:10;;;;;;;25.07;5.13;;;;;7.90;101900.00;;;;10436041;28;20213;-79
2021/11/08 17:30:12;;;;;;;18.07;5.07;;;;;7.80;101908.00;;;;10471124;28;20724;-79
2021/11/08 17:35:14;;;;;;;14.83;5.23;;;;;7.70;101903.00;;;;10433326;28;20186;-78
2021/11/08 17:40:17;;;;;;;23.77;6.70;;;;;7.70;101917.00;;;;10440188;28;20190;-79
2021/11/08 17:45:21;;;;;;;22.20;6.67;;;;;7.60;101924.00;;;;10461025;28;20221;-78
2021/11/08 17:50:25;;;;;;;29.67;7.10;;;;;7.50;101926.00;;;;10471787;28;20213;-79
2021/11/08 17:55:30;;;;;;;29.80;7.60;;;;;7.40;101932.00;;;;10382524;28;20268;-79
2021/11/08 18:00:33;;;;;;;26.10;8.47;;;;;7.40;101934.00;;;;10410539;28;20248;-79
2021/11/08 18:05:35;;;;;;;21.47;7.23;;;;;7.30;101930.00;;;;10422163;28;20225;-83
2021/11/08 18:10:37;;;;;;;30.83;7.70;;;;;7.30;101934.00;;;;10407535;28;20217;-79
2021/11/08 18:15:41;;;;;;;24.77;10.00;;;;;7.30;101941.00;;;;10427284;28;20745;-78
2021/11/08 18:31:20;;;;;;;19.47;7.87;;;;;6.90;101955.00;;;;10400231;28;20238;-78
2021/11/08 18:36:24;;;;;;;20.97;8.03;;;;;6.80;101953.00;;;;10397594;28;20199;-79
2021/11/08 18:41:28;;;;;;;26.40;9.60;;;;;6.80;101954.00;;;;10369627;28;20202;-78
2021/11/08 18:46:32;;;;;;;25.37;8.83;;;;;6.70;101951.00;;;;10352560;28;20280;-78
2021/11/08 18:51:34;;;;;;;26.80;9.13;;;;;6.70;101953.00;;;;10347979;28;20202;-79
2021/11/08 18:56:37;;;;;;;26.00;8.70;;;;;6.70;101965.00;;;;10348704;28;20199;-79
2021/11/08 19:01:48;;;;;;;22.60;7.83;;;;;6.70;101964.00;;;;10355508;28;20235;-78
2021/11/08 19:06:57;;;;;;;24.17;9.17;;;;;6.60;101964.00;;;;10398250;28;20237;-79
2021/11/08 19:12:00;;;;;;;24.23;8.30;;;;;6.50;101970.00;;;;10365489;28;20207;-78
2021/11/08 19:17:03;;;;;;;26.33;9.63;;;;;6.40;101962.00;;;;10366733;28;20358;-79
2021/11/08 19:22:08;;;;;;;24.97;9.50;;;;;6.50;101975.00;;;;10372147;28;20680;-79
2021/11/08 19:27:10;;;;;;;30.20;10.73;;;;;6.60;101967.00;;;;10366632;28;20230;-79
2021/11/08 19:32:18;;;;;;;36.10;10.50;;;;;6.70;101954.00;;;;10405092;28;20303;-79
2021/11/08 19:42:40;;;;;;;26.17;11.20;;;;;6.70;101953.00;;;;10418938;28;20567;-78
2021/11/08 19:47:42;;;;;;;30.53;10.83;;;;;6.60;101952.00;;;;10436721;28;20238;-79
2021/11/08 19:52:44;;;;;;;37.80;12.17;;;;;6.50;101948.00;;;;10415937;28;20206;-78
2021/11/08 19:57:46;;;;;;;33.60;11.63;;;;;6.50;101961.00;;;;10419913;28;20685;-79
2021/11/08 20:02:50;;;;;;;34.30;12.87;;;;;6.40;101967.00;;;;10416223;28;20626;-79
2021/11/08 20:07:54;;;;;;;37.77;13.07;;;;;6.40;101967.00;;;;10412541;28;20241;-79
2021/11/08 20:17:58;;;;;;;28.93;13.27;;;;;6.30;101975.00;;;;10424314;28;20256;-79
2021/11/08 20:23:00;;;;;;;30.27;14.43;;;;;6.20;101976.00;;;;10407806;28;20891;-78
2021/11/08 20:28:06;;;;;;;34.80;17.57;;;;;6.10;101976.00;;;;10421243;28;20265;-79
2021/11/08 20:38:22;;;;;;;29.83;13.57;;;;;6.00;101965.00;;;;10421037;28;20194;-78
2021/11/08 20:54:23;;;;;;;34.43;13.93;;;;;5.60;101960.00;;;;10411251;28;20966;-78
2021/11/08 20:59:45;;;;;;;43.70;15.43;;;;;5.60;101961.00;;;;10407128;28;20550;-78
2021/11/08 21:04:57;;;;;;;35.33;14.70;;;;;5.70;101966.00;;;;10395795;28;20218;-78
2021/11/08 21:15:13;;;;;;;35.97;15.60;;;;;5.60;101968.00;;;;10438608;28;20626;-78
2021/11/08 21:20:16;;;;;;;35.83;15.07;;;;;5.60;101962.00;;;;10422179;28;20194;-78
2021/11/08 21:25:18;;;;;;;40.40;16.57;;;;;5.60;101966.00;;;;10399642;28;20685;-78
2021/11/08 21:41:06;;;;;;;34.57;16.07;;;;;5.60;101973.00;;;;10392619;28;20285;-79
2021/11/08 21:46:08;;;;;;;37.37;15.10;;;;;5.60;101980.00;;;;10368489;28;20226;-79
2021/11/08 21:51:10;;;;;;;34.80;16.93;;;;;5.70;101995.00;;;;10362019;28;20217;-78
2021/11/08 21:56:14;;;;;;;35.27;17.40;;;;;5.60;101986.00;;;;10380465;28;20666;-78
2021/11/08 22:01:17;;;;;;;39.23;16.57;;;;;5.60;101981.00;;;;10374161;28;20209;-78
2021/11/08 22:06:20;;;;;;;37.37;16.30;;;;;5.40;101977.00;;;;10389695;28;20305;-79
2021/11/08 22:11:22;;;;;;;32.13;15.00;;;;;5.20;101974.00;;;;10375104;28;20292;-78
2021/11/08 22:16:25;;;;;;;30.23;15.57;;;;;5.10;101979.00;;;;10395860;28;20295;-79
2021/11/08 22:21:29;;;;;;;39.87;16.20;;;;;5.00;101980.00;;;;10374368;28;20202;-78
2021/11/08 22:26:32;;;;;;;38.33;16.70;;;;;5.00;101981.00;;;;10387864;28;20310;-78
2021/11/08 22:31:35;;;;;;;35.00;15.60;;;;;5.00;101989.00;;;;10404418;28;20720;-79
2021/11/08 22:36:43;;;;;;;31.87;15.80;;;;;5.00;101993.00;;;;10401424;28;20248;-79
2021/11/08 22:41:47;;;;;;;37.30;15.20;;;;;4.90;101997.00;;;;10400433;28;20242;-79
2021/11/08 22:46:49;;;;;;;39.33;15.90;;;;;4.90;102003.00;;;;10402016;28;20260;-78
2021/11/08 22:51:51;;;;;;;38.03;15.00;;;;;4.90;101991.00;;;;10413432;28;20656;-78
2021/11/08 22:56:54;;;;;;;37.93;16.37;;;;;4.90;101998.00;;;;10433732;28;20691;-78
2021/11/08 23:01:57;;;;;;;40.30;15.87;;;;;4.90;102005.00;;;;10398680;28;20210;-78
2021/11/08 23:07:01;;;;;;;42.23;18.07;;;;;5.00;102003.00;;;;10423203;28;20213;-78
2021/11/08 23:12:03;;;;;;;36.67;16.10;;;;;5.00;101993.00;;;;10418076;28;20202;-78
2021/11/08 23:17:06;;;;;;;41.10;16.87;;;;;4.90;101998.00;;;;10416701;28;20202;-78
2021/11/08 23:22:08;;;;;;;39.73;15.10;;;;;4.80;101993.00;;;;10400690;28;20209;-78
2021/11/08 23:27:10;;;;;;;37.97;15.40;;;;;4.70;101981.00;;;;10403666;28;20268;-78
2021/11/08 23:32:12;;;;;;;37.63;15.40;;;;;4.70;101986.00;;;;10434156;28;20234;-77
2021/11/08 23:37:15;;;;;;;39.60;15.53;;;;;4.70;101987.00;;;;10425822;28;20217;-78
2021/11/08 23:42:17;;;;;;;41.13;17.17;;;;;4.80;102004.00;;;;10420451;28;20272;-78
2021/11/08 23:47:19;;;;;;;43.57;17.67;;;;;4.80;101997.00;;;;10417947;28;20222;-78
2021/11/08 23:52:22;;;;;;;35.07;14.83;;;;;4.80;102009.00;;;;10387344;28;20210;-79
2021/11/08 23:57:31;;;;;;;35.60;14.60;;;;;4.70;102005.00;;;;10415122;28;20206;-77
